createdAt,value
2017-11-25T00:01:20.443Z,4.08
2017-11-25T00:03:47.970Z,4.09
2017-11-25T00:06:15.517Z,4.08
2017-11-25T00:08:43.075Z,4.17
2017-11-25T00:11:10.616Z,4.51
2017-11-25T00:13:38.190Z,4.26
2017-11-25T00:16:05.723Z,4.16
2017-11-25T00:18:33.240Z,4.15
2017-11-25T00:21:00.992Z,4.14
2017-11-25T00:23:28.511Z,4.15
2017-11-25T00:25:56.039Z,4.20
2017-11-25T00:28:23.638Z,4.19
2017-11-25T00:30:51.153Z,4.21
2017-11-25T00:33:18.676Z,4.19
2017-11-25T00:35:46.421Z,4.10
2017-11-25T00:38:13.947Z,4.10
2017-11-25T00:40:41.473Z,4.12
2017-11-25T00:43:09.036Z,4.14
2017-11-25T00:45:36.722Z,4.09
2017-11-25T00:48:04.241Z,4.07
2017-11-25T00:50:31.762Z,4.09
2017-11-25T00:52:59.355Z,4.11
2017-11-25T00:55:26.873Z,4.08
2017-11-25T00:57:54.390Z,4.39
2017-11-25T01:00:22.144Z,4.17
2017-11-25T01:02:49.661Z,4.06
2017-11-25T01:05:17.178Z,4.01
2017-11-25T01:07:44.760Z,4.16
2017-11-25T01:10:12.273Z,4.28
2017-11-25T01:12:39.792Z,4.37
2017-11-25T01:15:07.372Z,4.27
2017-11-25T01:17:34.899Z,4.24
2017-11-25T01:20:02.413Z,4.14
2017-11-25T01:22:29.965Z,4.08
2017-11-25T01:24:57.534Z,3.93
2017-11-25T01:27:25.068Z,3.90
2017-11-25T01:29:52.583Z,4.17
2017-11-25T01:32:20.158Z,4.08
2017-11-25T01:34:47.717Z,4.06
2017-11-25T01:37:15.251Z,4.04
2017-11-25T01:39:42.821Z,4.04
2017-11-25T01:42:10.339Z,4.02
2017-11-25T01:44:37.873Z,4.02
2017-11-25T01:47:05.635Z,4.03
2017-11-25T01:49:33.171Z,4.31
2017-11-25T01:52:00.688Z,4.18
2017-11-25T01:54:28.254Z,4.09
2017-11-25T01:56:55.790Z,4.08
2017-11-25T01:59:23.345Z,4.56
2017-11-25T02:01:50.907Z,4.62
2017-11-25T02:04:18.840Z,4.54
2017-11-25T02:06:46.381Z,4.30
2017-11-25T02:09:13.930Z,4.64
2017-11-25T02:11:41.675Z,4.40
2017-11-25T02:14:09.220Z,4.25
2017-11-25T02:16:36.761Z,4.26
2017-11-25T02:19:04.344Z,4.34
2017-11-25T02:21:31.881Z,4.39
2017-11-25T02:23:59.634Z,4.42
2017-11-25T02:26:27.169Z,4.43
2017-11-25T02:28:54.694Z,4.40
2017-11-25T02:31:22.466Z,4.24
2017-11-25T02:33:49.989Z,4.47
2017-11-25T02:36:17.558Z,4.70
2017-11-25T02:38:45.273Z,4.54
2017-11-25T02:41:12.814Z,4.35
2017-11-25T02:43:40.363Z,4.24
2017-11-25T02:46:07.960Z,4.20
2017-11-25T02:48:35.498Z,4.13
2017-11-25T02:51:03.046Z,4.08
2017-11-25T02:53:30.643Z,4.09
2017-11-25T02:55:58.190Z,4.07
2017-11-25T02:58:25.725Z,4.03
2017-11-25T03:00:58.131Z,4.04
2017-11-25T03:03:25.661Z,3.98
2017-11-25T03:05:53.220Z,3.97
2017-11-25T03:08:20.813Z,4.02
2017-11-25T03:10:48.365Z,4.38
2017-11-25T03:13:15.927Z,4.02
2017-11-25T03:15:43.483Z,4.15
2017-11-25T03:18:11.014Z,4.39
2017-11-25T03:20:38.725Z,4.48
2017-11-25T03:23:06.245Z,4.19
2017-11-25T03:25:33.781Z,4.08
2017-11-25T03:28:01.335Z,4.01
2017-11-25T03:30:28.867Z,3.97
2017-11-25T03:32:56.595Z,3.97
2017-11-25T03:35:24.135Z,3.85
2017-11-25T03:37:51.672Z,3.73
2017-11-25T03:40:19.254Z,3.79
2017-11-25T03:42:46.792Z,4.12
2017-11-25T03:45:14.304Z,3.70
2017-11-25T03:47:41.869Z,3.37
2017-11-25T03:50:09.385Z,3.13
2017-11-25T03:52:36.907Z,2.97
2017-11-25T03:55:04.469Z,3.03
2017-11-25T03:57:31.995Z,2.98
2017-11-25T03:59:59.583Z,2.87
2017-11-25T04:02:27.114Z,2.76
2017-11-25T04:04:54.629Z,2.71
2017-11-25T04:07:22.411Z,2.79
2017-11-25T04:09:49.938Z,2.96
2017-11-25T04:12:17.462Z,2.85
2017-11-25T04:14:45.054Z,2.89
2017-11-25T04:17:12.779Z,2.75
2017-11-25T04:19:40.320Z,2.74
2017-11-25T04:22:07.886Z,2.78
2017-11-25T04:24:35.440Z,2.80
2017-11-25T04:27:03.199Z,2.81
2017-11-25T04:29:30.751Z,2.74
2017-11-25T04:31:58.270Z,2.69
2017-11-25T04:34:25.997Z,2.58
2017-11-25T04:36:53.528Z,2.34
2017-11-25T04:39:21.081Z,2.15
2017-11-25T04:41:48.640Z,2.03
2017-11-25T04:44:16.161Z,1.91
2017-11-25T04:46:43.725Z,1.88
2017-11-25T04:49:11.260Z,1.84
2017-11-25T04:51:38.823Z,1.72
2017-11-25T04:54:06.379Z,1.56
2017-11-25T04:56:33.924Z,1.46
2017-11-25T04:59:01.493Z,1.45
2017-11-25T05:01:29.213Z,1.42
2017-11-25T05:03:56.786Z,1.22
2017-11-25T05:06:24.322Z,1.14
2017-11-25T05:08:51.897Z,1.11
2017-11-25T05:11:19.434Z,1.14
2017-11-25T05:13:46.969Z,0.97
2017-11-25T05:16:14.525Z,0.92
2017-11-25T05:18:42.055Z,0.89
2017-11-25T05:21:09.645Z,0.81
2017-11-25T05:23:37.213Z,0.87
2017-11-25T05:26:04.758Z,0.79
2017-11-25T05:28:32.470Z,0.60
2017-11-25T05:31:00.009Z,0.52
2017-11-25T05:33:27.542Z,0.40
2017-11-25T05:35:55.126Z,0.31
2017-11-25T05:38:22.661Z,0.17
2017-11-25T05:40:50.201Z,0.10
2017-11-25T05:43:17.777Z,0.08
2017-11-25T05:45:45.310Z,0.04
2017-11-25T05:48:12.834Z,0.35
2017-11-25T05:50:40.570Z,0.33
2017-11-25T05:53:08.110Z,0.30
2017-11-25T05:55:35.650Z,0.01
2017-11-25T05:58:03.202Z,-0.15
2017-11-25T06:00:30.729Z,-0.21
2017-11-25T06:02:58.331Z,-0.18
2017-11-25T06:05:25.853Z,-0.11
2017-11-25T06:07:53.390Z,-0.01
2017-11-25T06:10:20.937Z,0.07
2017-11-25T06:12:48.454Z,0.18
2017-11-25T06:15:16.193Z,0.18
2017-11-25T06:17:43.723Z,0.21
2017-11-25T06:20:11.259Z,0.26
2017-11-25T06:22:38.839Z,0.30
2017-11-25T06:25:06.363Z,0.28
2017-11-25T06:27:33.917Z,0.17
2017-11-25T06:30:01.490Z,0.22
2017-11-25T06:32:29.030Z,0.14
2017-11-25T06:34:56.578Z,0.05
2017-11-25T06:37:24.253Z,0.02
2017-11-25T06:39:51.798Z,0.04
2017-11-25T06:42:19.347Z,0.00
2017-11-25T06:44:46.943Z,-0.10
2017-11-25T06:47:14.647Z,-0.11
2017-11-25T06:49:42.178Z,-0.17
2017-11-25T06:52:09.734Z,-0.25
2017-11-25T06:54:37.259Z,-0.39
2017-11-25T06:57:04.820Z,-0.48
2017-11-25T06:59:32.347Z,-0.44
2017-11-25T07:01:59.911Z,-0.27
2017-11-25T07:04:27.442Z,-0.27
2017-11-25T07:06:55.025Z,-0.30
2017-11-25T07:09:22.566Z,-0.34
2017-11-25T07:11:50.148Z,-0.40
2017-11-25T07:14:17.827Z,-0.46
2017-11-25T07:16:45.382Z,-0.37
2017-11-25T07:19:12.926Z,-0.41
2017-11-25T07:21:40.666Z,-0.48
2017-11-25T07:24:08.218Z,-0.64
2017-11-25T07:26:35.753Z,-0.72
2017-11-25T07:29:03.417Z,-0.83
2017-11-25T07:31:30.949Z,-0.86
2017-11-25T07:33:58.484Z,-0.90
2017-11-25T07:36:26.608Z,-0.95
2017-11-25T07:38:54.146Z,-0.90
2017-11-25T07:41:21.690Z,-0.95
2017-11-25T07:43:49.273Z,-0.87
2017-11-25T07:46:16.812Z,-0.79
2017-11-25T07:48:44.366Z,-0.82
2017-11-25T07:51:11.953Z,-0.83
2017-11-25T07:53:41.663Z,-0.85
2017-11-25T07:56:09.194Z,-0.79
2017-11-25T07:58:36.745Z,-0.77
2017-11-25T08:01:04.286Z,-0.77
2017-11-25T08:03:31.851Z,-0.73
2017-11-25T08:05:59.391Z,-0.73
2017-11-25T08:08:26.961Z,-0.65
2017-11-25T08:10:54.489Z,-0.55
2017-11-25T08:13:22.046Z,-0.54
2017-11-25T08:15:49.621Z,-0.50
2017-11-25T08:18:17.154Z,-0.44
2017-11-25T08:20:44.686Z,-0.43
2017-11-25T08:23:12.285Z,-0.37
2017-11-25T08:25:39.834Z,-0.24
2017-11-25T08:28:07.372Z,-0.15
2017-11-25T08:30:34.932Z,-0.10
2017-11-25T08:33:02.479Z,-0.05
2017-11-25T08:35:30.064Z,0.01
2017-11-25T08:37:57.590Z,0.06
2017-11-25T08:40:25.119Z,0.12
2017-11-25T08:42:53.367Z,0.19
2017-11-25T08:45:20.906Z,0.28
2017-11-25T08:47:48.442Z,0.33
2017-11-25T08:50:15.990Z,0.42
2017-11-25T08:52:43.528Z,0.48
2017-11-25T08:55:11.079Z,0.60
2017-11-25T08:57:38.611Z,0.75
2017-11-25T09:00:06.166Z,0.98
2017-11-25T09:02:33.701Z,1.16
2017-11-25T09:05:01.389Z,1.32
2017-11-25T09:07:28.922Z,1.47
2017-11-25T09:09:56.447Z,1.73
2017-11-25T09:12:24.210Z,2.05
2017-11-25T09:14:51.768Z,2.25
2017-11-25T09:17:19.303Z,2.40
2017-11-25T09:19:46.870Z,2.81
2017-11-25T09:22:14.420Z,2.76
2017-11-25T09:24:41.969Z,3.21
2017-11-25T09:27:09.509Z,3.30
2017-11-25T09:29:37.080Z,3.43
2017-11-25T09:32:04.618Z,3.34
2017-11-25T09:34:32.134Z,3.29
2017-11-25T09:36:59.819Z,3.37
2017-11-25T09:39:27.343Z,3.35
2017-11-25T09:41:54.869Z,3.47
2017-11-25T09:44:22.419Z,3.58
2017-11-25T09:46:49.967Z,3.58
2017-11-25T09:49:17.626Z,3.79
2017-11-25T09:51:45.172Z,3.76
2017-11-25T09:54:12.698Z,3.72
2017-11-25T09:56:40.285Z,3.60
2017-11-25T09:59:07.823Z,3.81
2017-11-25T10:01:35.337Z,3.81
2017-11-25T10:04:02.891Z,3.80
2017-11-25T10:06:30.475Z,3.73
2017-11-25T10:08:57.999Z,3.66
2017-11-25T10:11:25.536Z,3.73
2017-11-25T10:13:53.225Z,3.88
2017-11-25T10:16:20.738Z,3.94
2017-11-25T10:18:48.260Z,4.13
2017-11-25T10:21:15.823Z,3.84
2017-11-25T10:23:43.407Z,4.05
2017-11-25T10:26:10.979Z,4.42
2017-11-25T10:28:38.502Z,4.47
2017-11-25T10:31:06.018Z,4.17
2017-11-25T10:33:33.565Z,4.18
2017-11-25T10:36:01.138Z,4.14
2017-11-25T10:38:28.661Z,4.05
2017-11-25T10:40:56.223Z,4.19
2017-11-25T10:43:23.772Z,4.13
2017-11-25T10:45:51.310Z,4.14
2017-11-25T10:48:18.866Z,4.20
2017-11-25T10:50:46.440Z,4.36
2017-11-25T10:53:14.009Z,4.23
2017-11-25T10:55:41.578Z,4.14
2017-11-25T10:58:09.110Z,4.17
2017-11-25T11:00:36.789Z,4.13
2017-11-25T11:03:04.300Z,4.26
2017-11-25T11:05:31.821Z,4.15
2017-11-25T11:07:59.362Z,4.12
2017-11-25T11:10:26.891Z,4.24
2017-11-25T11:12:54.478Z,4.34
2017-11-25T11:15:22.018Z,4.32
2017-11-25T11:17:49.542Z,4.34
2017-11-25T11:20:17.087Z,4.37
2017-11-25T11:22:44.679Z,4.32
2017-11-25T11:25:12.219Z,4.61
2017-11-25T11:27:39.738Z,4.38
2017-11-25T11:30:07.473Z,4.50
2017-11-25T11:32:34.999Z,4.53
2017-11-25T11:35:02.521Z,4.61
2017-11-25T11:37:30.080Z,4.77
2017-11-25T11:39:57.602Z,4.78
2017-11-25T11:42:25.341Z,4.73
2017-11-25T11:44:52.866Z,4.66
2017-11-25T11:47:20.399Z,4.76
2017-11-25T11:49:47.937Z,4.87
2017-11-25T11:52:16.559Z,4.99
2017-11-25T11:54:44.109Z,5.00
2017-11-25T11:57:11.660Z,5.04
2017-11-25T11:59:39.229Z,4.88
2017-11-25T12:02:06.757Z,4.98
2017-11-25T12:04:34.286Z,5.04
2017-11-25T12:07:01.980Z,5.15
2017-11-25T12:09:29.492Z,5.03
2017-11-25T12:11:57.019Z,5.15
2017-11-25T12:14:24.557Z,5.44
2017-11-25T12:16:52.160Z,5.67
2017-11-25T12:19:19.697Z,5.77
2017-11-25T12:21:47.214Z,6.14
2017-11-25T12:24:14.801Z,6.11
2017-11-25T12:26:42.332Z,6.25
2017-11-25T12:29:09.841Z,5.71
2017-11-25T12:31:37.378Z,5.40
2017-11-25T12:34:05.095Z,5.67
2017-11-25T12:36:32.605Z,5.64
2017-11-25T12:39:00.146Z,5.58
2017-11-25T12:41:27.814Z,5.55
2017-11-25T12:43:55.363Z,5.43
2017-11-25T12:46:22.916Z,5.67
2017-11-25T12:48:50.581Z,5.49
2017-11-25T12:51:18.127Z,5.45
2017-11-25T12:53:46.693Z,5.48
2017-11-25T12:56:14.298Z,5.46
2017-11-25T12:58:41.827Z,5.45
2017-11-25T13:01:09.353Z,5.73
2017-11-25T13:03:36.906Z,5.83
2017-11-25T13:06:04.417Z,5.62
2017-11-25T13:08:32.133Z,5.48
2017-11-25T13:10:59.654Z,5.58
2017-11-25T13:13:27.173Z,5.47
2017-11-25T13:15:54.733Z,5.40
2017-11-25T13:18:22.245Z,5.35
2017-11-25T13:20:49.757Z,5.42
2017-11-25T13:23:17.329Z,5.51
2017-11-25T13:25:44.841Z,5.42
2017-11-25T13:28:12.368Z,5.56
2017-11-25T13:30:39.913Z,5.65
2017-11-25T13:33:07.440Z,5.55
2017-11-25T13:35:35.107Z,5.56
2017-11-25T13:38:02.642Z,5.62
2017-11-25T13:40:30.166Z,5.60
2017-11-25T13:42:57.725Z,5.75
2017-11-25T13:45:25.285Z,5.63
2017-11-25T13:47:52.814Z,5.55
2017-11-25T13:50:20.348Z,5.54
2017-11-25T13:52:47.927Z,5.43
2017-11-25T13:55:15.442Z,5.36
2017-11-25T13:57:43.002Z,5.33
2017-11-25T14:00:10.543Z,5.02
2017-11-25T14:02:38.086Z,4.45
2017-11-25T14:05:05.653Z,3.88
2017-11-25T14:07:33.190Z,3.73
2017-11-25T14:10:00.754Z,3.59
2017-11-25T14:12:28.330Z,3.72
2017-11-25T14:14:55.875Z,3.71
2017-11-25T14:17:23.395Z,3.78
2017-11-25T14:19:50.938Z,3.77
2017-11-25T14:22:18.498Z,3.55
2017-11-25T14:24:46.026Z,3.44
2017-11-25T14:27:13.562Z,3.45
2017-11-25T14:29:41.227Z,3.36
2017-11-25T14:32:08.733Z,3.32
2017-11-25T14:34:36.248Z,3.34
2017-11-25T14:37:03.822Z,3.38
2017-11-25T14:39:31.330Z,3.29
2017-11-25T14:41:58.849Z,3.13
2017-11-25T14:44:26.413Z,3.08
2017-11-25T14:46:53.929Z,3.08
2017-11-25T14:49:21.454Z,3.06
2017-11-25T14:51:48.986Z,3.10
2017-11-25T14:54:16.642Z,3.08
2017-11-25T14:56:44.153Z,3.07
2017-11-25T14:59:11.661Z,3.21
2017-11-25T15:01:39.254Z,3.08
2017-11-25T15:04:06.773Z,3.10
2017-11-25T15:06:34.295Z,2.94
2017-11-25T15:09:01.835Z,2.89
2017-11-25T15:11:29.398Z,2.86
2017-11-25T15:13:56.923Z,2.81
2017-11-25T15:16:24.441Z,2.84
2017-11-25T15:18:52.205Z,2.83
2017-11-25T15:21:19.749Z,2.95
2017-11-25T15:23:47.266Z,2.81
2017-11-25T15:26:14.811Z,2.78
2017-11-25T15:28:42.395Z,2.64
2017-11-25T15:31:09.933Z,2.53
2017-11-25T15:33:37.678Z,2.58
2017-11-25T15:36:05.235Z,2.43
2017-11-25T15:38:32.781Z,2.34
2017-11-25T15:41:00.539Z,2.32
2017-11-25T15:43:28.069Z,2.32
2017-11-25T15:45:55.577Z,2.10
2017-11-25T15:48:23.134Z,1.93
2017-11-25T15:50:50.692Z,2.00
2017-11-25T15:53:18.278Z,2.11
2017-11-25T15:55:45.809Z,1.95
2017-11-25T15:58:13.334Z,2.07
2017-11-25T16:00:40.940Z,2.01
2017-11-25T16:03:08.461Z,2.05
2017-11-25T16:05:35.976Z,2.23
2017-11-25T16:08:03.539Z,2.28
2017-11-25T16:10:31.080Z,2.23
2017-11-25T16:12:58.589Z,2.17
2017-11-25T16:15:26.155Z,2.12
2017-11-25T16:17:53.666Z,1.95
2017-11-25T16:20:21.203Z,1.91
2017-11-25T16:22:48.870Z,1.98
2017-11-25T16:25:16.393Z,1.85
2017-11-25T16:27:43.919Z,1.88
2017-11-25T16:30:11.513Z,1.91
2017-11-25T16:32:39.046Z,1.94
2017-11-25T16:35:06.568Z,1.90
2017-11-25T16:37:34.166Z,1.91
2017-11-25T16:40:01.690Z,2.01
2017-11-25T16:42:29.205Z,2.03
2017-11-25T16:44:56.922Z,2.16
2017-11-25T16:47:24.438Z,2.16
2017-11-25T16:49:51.971Z,2.24
2017-11-25T16:52:19.550Z,2.36
2017-11-25T16:54:47.064Z,2.32
2017-11-25T16:57:14.599Z,2.31
2017-11-25T16:59:42.148Z,2.33
2017-11-25T17:02:09.688Z,2.35
2017-11-25T17:04:37.216Z,2.40
2017-11-25T17:07:04.757Z,2.43
2017-11-25T17:09:32.278Z,2.43
2017-11-25T17:11:59.866Z,2.42
2017-11-25T17:14:27.396Z,2.40
2017-11-25T17:16:54.911Z,2.25
2017-11-25T17:19:22.479Z,2.30
2017-11-25T17:21:49.993Z,2.31
2017-11-25T17:24:17.507Z,2.31
2017-11-25T17:26:45.047Z,2.31
2017-11-25T17:29:12.622Z,2.25
2017-11-25T17:31:40.143Z,2.18
2017-11-25T17:34:07.674Z,2.21
2017-11-25T17:36:35.214Z,2.18
2017-11-25T17:39:02.730Z,2.16
2017-11-25T17:41:30.302Z,2.08
2017-11-25T17:43:57.825Z,2.19
2017-11-25T17:46:25.393Z,2.28
2017-11-25T17:48:52.916Z,2.27
2017-11-25T17:51:20.420Z,2.23
2017-11-25T17:53:47.957Z,2.11
2017-11-25T17:56:15.470Z,2.16
2017-11-25T17:58:43.027Z,2.13
2017-11-25T18:01:10.551Z,2.07
2017-11-25T18:03:38.101Z,2.05
2017-11-25T18:06:05.618Z,2.05
2017-11-25T18:08:33.206Z,2.00
2017-11-25T18:11:00.725Z,2.05
2017-11-25T18:13:28.278Z,2.06
2017-11-25T18:15:55.862Z,2.04
2017-11-25T18:18:23.391Z,2.09
2017-11-25T18:20:50.920Z,2.08
2017-11-25T18:23:18.466Z,2.13
2017-11-25T18:25:46.197Z,2.10
2017-11-25T18:28:13.726Z,2.12
2017-11-25T18:30:41.251Z,1.97
2017-11-25T18:33:08.792Z,1.86
2017-11-25T18:35:36.316Z,1.94
2017-11-25T18:38:03.882Z,1.77
2017-11-25T18:40:31.421Z,1.68
2017-11-25T18:42:59.090Z,1.71
2017-11-25T18:45:26.626Z,1.61
2017-11-25T18:47:54.158Z,1.74
2017-11-25T18:50:21.689Z,1.85
2017-11-25T18:52:49.244Z,1.85
2017-11-25T18:55:16.754Z,1.78
2017-11-25T18:57:44.283Z,1.94
2017-11-25T19:00:11.863Z,1.87
2017-11-25T19:02:39.425Z,1.87
2017-11-25T19:05:06.952Z,1.77
2017-11-25T19:07:34.475Z,1.84
2017-11-25T19:10:02.018Z,1.77
2017-11-25T19:12:29.673Z,1.80
2017-11-25T19:14:57.180Z,1.86
2017-11-25T19:17:24.693Z,2.00
2017-11-25T19:19:52.234Z,1.89
2017-11-25T19:22:19.758Z,1.83
2017-11-25T19:24:47.302Z,1.97
2017-11-25T19:27:14.821Z,2.02
2017-11-25T19:29:42.561Z,1.99
2017-11-25T19:32:10.079Z,2.04
2017-11-25T19:34:37.593Z,2.05
2017-11-25T19:37:05.146Z,2.09
2017-11-25T19:39:32.789Z,2.10
2017-11-25T19:42:00.307Z,2.14
2017-11-25T19:44:27.850Z,2.21
2017-11-25T19:46:55.548Z,2.25
2017-11-25T19:49:23.079Z,2.26
2017-11-25T19:51:50.597Z,2.36
2017-11-25T19:54:18.294Z,2.34
2017-11-25T19:56:45.842Z,2.55
2017-11-25T19:59:13.372Z,2.34
2017-11-25T20:01:40.909Z,2.29
2017-11-25T20:04:08.424Z,2.35
2017-11-25T20:06:36.007Z,2.26
2017-11-25T20:09:03.559Z,2.21
2017-11-25T20:11:31.082Z,2.24
2017-11-25T20:13:58.664Z,2.17
2017-11-25T20:16:26.186Z,2.17
2017-11-25T20:18:53.705Z,2.01
2017-11-25T20:21:21.280Z,2.01
2017-11-25T20:23:48.803Z,1.96
2017-11-25T20:26:16.331Z,1.95
2017-11-25T20:28:44.013Z,1.90
2017-11-25T20:31:11.534Z,1.82
2017-11-25T20:33:39.055Z,1.91
2017-11-25T20:36:06.601Z,1.70
2017-11-25T20:38:34.146Z,1.74
2017-11-25T20:41:01.702Z,1.77
2017-11-25T20:43:29.233Z,1.82
2017-11-25T20:45:56.785Z,1.76
2017-11-25T20:48:24.297Z,1.75
2017-11-25T20:50:51.827Z,1.73
2017-11-25T20:53:19.415Z,1.74
2017-11-25T20:55:46.937Z,1.70
2017-11-25T20:58:14.440Z,1.67
2017-11-25T21:00:42.163Z,1.52
2017-11-25T21:03:09.682Z,1.40
2017-11-25T21:05:37.198Z,1.49
2017-11-25T21:08:04.759Z,1.56
2017-11-25T21:10:32.283Z,1.55
2017-11-25T21:12:59.803Z,1.46
2017-11-25T21:15:27.373Z,1.46
2017-11-25T21:17:54.896Z,1.41
2017-11-25T21:20:22.427Z,1.50
2017-11-25T21:22:50.232Z,1.38
2017-11-25T21:25:17.757Z,1.45
2017-11-25T21:27:45.282Z,1.33
2017-11-25T21:30:12.839Z,1.49
2017-11-25T21:32:40.376Z,1.53
2017-11-25T21:35:07.910Z,1.71
2017-11-25T21:37:35.462Z,1.73
2017-11-25T21:40:02.988Z,1.76
2017-11-25T21:42:30.542Z,1.87
2017-11-25T21:44:58.059Z,1.89
2017-11-25T21:47:25.594Z,1.76
2017-11-25T21:49:53.178Z,1.58
2017-11-25T21:52:20.701Z,1.57
2017-11-25T21:54:48.220Z,1.49
2017-11-25T21:57:15.937Z,1.38
2017-11-25T21:59:43.459Z,1.41
2017-11-25T22:02:10.977Z,1.45
2017-11-25T22:04:38.545Z,1.53
2017-11-25T22:07:06.071Z,1.46
2017-11-25T22:09:33.595Z,1.40
2017-11-25T22:12:01.142Z,1.46
2017-11-25T22:14:28.691Z,1.40
2017-11-25T22:16:56.206Z,1.53
2017-11-25T22:19:23.745Z,1.52
2017-11-25T22:21:51.253Z,1.51
2017-11-25T22:24:18.830Z,1.63
2017-11-25T22:26:46.380Z,1.58
2017-11-25T22:29:13.901Z,1.69
2017-11-25T22:31:41.454Z,1.74
2017-11-25T22:34:09.014Z,1.74
2017-11-25T22:36:36.597Z,1.84
2017-11-25T22:39:04.149Z,1.97
2017-11-25T22:41:31.666Z,1.81
2017-11-25T22:43:59.202Z,1.59
2017-11-25T22:46:26.738Z,1.59
2017-11-25T22:48:54.262Z,1.57
2017-11-25T22:51:22.020Z,1.61
2017-11-25T22:53:49.563Z,1.58
2017-11-25T22:56:17.077Z,1.56
2017-11-25T22:58:44.627Z,1.68
2017-11-25T23:01:12.147Z,1.62
2017-11-25T23:03:39.707Z,1.63
2017-11-25T23:06:11.246Z,1.80
2017-11-25T23:08:38.830Z,1.62
2017-11-25T23:11:06.376Z,1.77
2017-11-25T23:13:33.895Z,1.72
2017-11-25T23:16:01.466Z,1.66
2017-11-25T23:18:28.991Z,1.74
2017-11-25T23:20:56.503Z,1.86
2017-11-25T23:23:24.072Z,1.94
2017-11-25T23:25:51.585Z,1.99
2017-11-25T23:28:19.098Z,1.95
2017-11-25T23:30:46.634Z,1.87
2017-11-25T23:33:14.150Z,1.79
2017-11-25T23:35:41.714Z,1.65
2017-11-25T23:38:09.248Z,1.82
2017-11-25T23:40:36.790Z,1.87
2017-11-25T23:43:04.535Z,1.76
2017-11-25T23:45:32.054Z,1.70
2017-11-25T23:47:59.570Z,1.72
2017-11-25T23:50:27.105Z,1.73
2017-11-25T23:52:54.626Z,1.73
2017-11-25T23:55:22.164Z,1.81
2017-11-25T23:57:49.685Z,1.85
